TFFFTNCM

Guest
Details From TFFF - Martinique/Aime Cesaire Intl
To TNCM - St Maarten - Princess Juliana Intl
Flight Number -
Tags generated
Created
Modified
Stats Distance 252 nm / 467 km
Max Altitude 30,400 ft / 9,266 m
Waypoints 4
Social Downloads 12
Likes 0
Share VATSIM

Download

Looking for another format? Having issues loading an existing format? Contact us
Advertisement - Login to hide

Notes

Basic altitude profile: - Ascent Rate: 2500ft/min - Ascent Speed: 250kts - Cruise Altitude: 35000ft - Cruise Speed: 420kts - Descent Rate: 1500ft/min - Descent Speed: 250kts

Route

TFFF PPR UA312 ANU TNCM

ID Type Via Altitude Latitude Longitude Leg Dist Tot Dist Heading (true) Name
O TFFF APT - 0 ft / 0 m 14.59103˚ -61.00317˚ - 0 nm - Martinique/Aime Cesaire Intl
PPR DME - 30,400 ft / 9,266 m 16.26519˚ -61.54014˚ 105 nm 105 nm 343° / 343° POINTE A PITRE VOR-DME
ANU NDB UA312 (AWY-HI) 24,500 ft / 7,468 m 17.12588˚ -61.80017˚ 53 nm 159 nm 344° / 344° V C BIRD NDB
O TNCM APT - 0 ft / 0 m 18.04089˚ -63.10897˚ 92 nm 251 nm 306° / 306° St Maarten - Princess Juliana Intl

Altitude Profile

Advertisement - Login to hide

Weather


0- 5 10 15 20 25 30 35+ Temperature / ° C

Clouds and Precipitation
Forecast for 2018-05-20 12:00 UTC. Updated 28 minutes ago

Ground ~20,000 ft ~40,000 ft Winds

TFFF

Details ICAO TFFF (FDF)
Name Martinique/Aime Cesaire Intl
Region France (Guadeloupe, Martinique, Saint Barthélemy, Saint Martin)
Timezone America/Martinique (UTC-4.0)
Stats Elevation 16 ft / 5 m (AMSL)
Location 14.591032° -61.003173°
Runways 1
Magnetic Variation 15.071° W

METAR

TFFF 200930Z AUTO 10008KT 9999 FEW033 BKN068 25/22 Q1015 TEMPO 4000 SHRA BKN018TCU

Decode

TAF

TAF TFFF 192200Z 2000/2024 10010KT 9999 SCT024 PROB30 TEMPO 2000/2024 4000 SHRA BKN018TCU TEMPO 2018/2024 2000 TSRA SCT015CB

Decode

Departure Runways

ID Width Length Bearing (true) Bearing (mag) Surface Threshold Offset Overrun Length
09 148 ft / 45 m 9,852 ft / 3,003 m 79.93° 95.00° Asphalt 0 ft / 0 m 0 ft / 0 m
27 148 ft / 45 m 9,852 ft / 3,003 m 259.94° 275.01° Asphalt 820 ft / 250 m 948 ft / 289 m

TNCM

Details ICAO TNCM (SXM)
Name St Maarten - Princess Juliana Intl
Region Caribbean Netherlands, Aruba, Curaçao, Sint Maarten
Timezone Unknown (UTC+0.0)
Stats Elevation 12 ft / 4 m (AMSL)
Location 18.040889° -63.108974°
Runways 1
Magnetic Variation 14.337° W

METAR

TNCM 200900Z 08013KT 9999 SCT020 25/20 Q1017 A3004

Decode

TAF

TAF TAF TNCM 200535Z 2006/2106 09010KT P6SM -RA SCT018 FM201300 09015KT P6SM VCSH SCT020 FM202300 09010KT P6SM SCT018

Decode

Destination Runways

ID Width Length Bearing (true) Bearing (mag) Surface Threshold Offset Overrun Length
10 148 ft / 45 m 7,464 ft / 2,275 m 81.43° 95.77° Asphalt 0 ft / 0 m 151 ft / 46 m
28 148 ft / 45 m 7,464 ft / 2,275 m 261.44° 275.78° Asphalt 397 ft / 121 m 0 ft / 0 m

Popular Alternatives